createdAt,value
2017-07-04T00:01:27.053Z,3.67
2017-07-04T00:03:53.312Z,3.67
2017-07-04T00:06:19.577Z,3.42
2017-07-04T00:08:46.268Z,3.70
2017-07-04T00:11:12.926Z,4.03
2017-07-04T00:13:39.208Z,4.70
2017-07-04T00:16:05.489Z,3.40
2017-07-04T00:18:31.786Z,4.15
2017-07-04T00:20:58.067Z,4.10
2017-07-04T00:23:24.337Z,4.00
2017-07-04T00:25:50.610Z,3.85
2017-07-04T00:28:19.672Z,3.70
2017-07-04T00:30:45.946Z,3.80
2017-07-04T00:33:12.188Z,4.10
2017-07-04T00:35:38.479Z,3.85
2017-07-04T00:38:04.735Z,3.97
2017-07-04T00:40:31.051Z,4.25
2017-07-04T00:42:57.368Z,4.25
2017-07-04T00:45:23.637Z,3.90
2017-07-04T00:47:49.923Z,3.90
2017-07-04T00:50:16.211Z,4.65
2017-07-04T00:52:42.495Z,4.30
2017-07-04T00:55:08.750Z,4.65
2017-07-04T00:57:35.024Z,3.80
2017-07-04T01:00:01.272Z,4.68
2017-07-04T01:02:27.542Z,4.30
2017-07-04T01:04:53.817Z,4.15
2017-07-04T01:07:20.425Z,4.00
2017-07-04T01:09:46.698Z,4.35
2017-07-04T01:12:12.967Z,4.12
2017-07-04T01:14:39.236Z,4.35
2017-07-04T01:17:05.477Z,4.15
2017-07-04T01:19:32.007Z,3.83
2017-07-04T01:21:58.635Z,4.20
2017-07-04T01:24:25.260Z,4.47
2017-07-04T01:26:51.536Z,4.05
2017-07-04T01:29:17.783Z,3.67
2017-07-04T01:31:44.096Z,4.50
2017-07-04T01:34:10.424Z,3.80
2017-07-04T01:36:36.715Z,4.30
2017-07-04T01:39:03.039Z,3.92
2017-07-04T01:41:29.315Z,3.80
2017-07-04T01:43:55.622Z,4.65
2017-07-04T01:46:21.896Z,4.25
2017-07-04T01:48:48.179Z,4.30
2017-07-04T01:51:14.831Z,3.85
2017-07-04T01:53:41.148Z,3.97
2017-07-04T01:56:07.395Z,4.50
2017-07-04T01:58:33.918Z,4.35
2017-07-04T02:01:00.179Z,4.35
2017-07-04T02:03:26.448Z,5.20
2017-07-04T02:05:52.722Z,4.10
2017-07-04T02:08:18.971Z,4.15
2017-07-04T02:10:45.230Z,4.12
2017-07-04T02:13:11.475Z,4.32
2017-07-04T02:15:38.125Z,4.35
2017-07-04T02:18:04.760Z,4.20
2017-07-04T02:20:31.036Z,4.10
2017-07-04T02:22:57.282Z,4.78
2017-07-04T02:25:23.560Z,4.03
2017-07-04T02:27:49.827Z,4.37
2017-07-04T02:30:16.095Z,4.47
2017-07-04T02:32:42.716Z,4.28
2017-07-04T02:35:08.969Z,4.85
2017-07-04T02:37:35.643Z,4.18
2017-07-04T02:40:01.975Z,4.50
2017-07-04T02:42:28.236Z,4.57
2017-07-04T02:44:54.534Z,5.20
2017-07-04T02:47:20.813Z,4.53
2017-07-04T02:49:47.093Z,4.35
2017-07-04T02:52:13.395Z,4.45
2017-07-04T02:54:39.662Z,5.12
2017-07-04T02:57:05.919Z,4.60
2017-07-04T02:59:32.188Z,4.75
2017-07-04T03:01:58.466Z,5.00
2017-07-04T03:04:24.716Z,4.60
2017-07-04T03:06:51.354Z,4.60
2017-07-04T03:09:17.607Z,4.45
2017-07-04T03:11:43.875Z,4.50
2017-07-04T03:14:10.136Z,4.70
2017-07-04T03:16:36.424Z,4.40
2017-07-04T03:19:02.689Z,5.10
2017-07-04T03:21:28.959Z,3.95
2017-07-04T03:23:55.235Z,4.12
2017-07-04T03:26:21.501Z,4.60
2017-07-04T03:28:47.764Z,4.47
2017-07-04T03:31:14.011Z,4.68
2017-07-04T03:33:40.529Z,4.30
2017-07-04T03:36:06.792Z,4.50
2017-07-04T03:38:33.102Z,5.20
2017-07-04T03:40:59.387Z,4.70
2017-07-04T03:43:25.664Z,5.00
2017-07-04T03:45:51.952Z,4.15
2017-07-04T03:48:18.221Z,4.35
2017-07-04T03:50:44.528Z,4.45
2017-07-04T03:53:10.792Z,4.25
2017-07-04T03:55:37.084Z,4.47
2017-07-04T03:58:03.369Z,4.60
2017-07-04T04:00:29.625Z,4.82
2017-07-04T04:02:55.916Z,4.57
2017-07-04T04:05:22.158Z,5.32
2017-07-04T04:07:48.449Z,4.35
2017-07-04T04:10:14.716Z,4.45
2017-07-04T04:12:41.383Z,5.00
2017-07-04T04:15:07.690Z,4.60
2017-07-04T04:17:33.951Z,4.10
2017-07-04T04:20:00.233Z,4.90
2017-07-04T04:22:26.504Z,4.20
2017-07-04T04:24:52.747Z,5.05
2017-07-04T04:27:19.002Z,4.28
2017-07-04T04:29:45.289Z,4.65
2017-07-04T04:32:11.545Z,4.65
2017-07-04T04:34:38.431Z,4.87
2017-07-04T04:37:05.072Z,4.32
2017-07-04T04:39:31.716Z,4.43
2017-07-04T04:41:58.005Z,4.75
2017-07-04T04:44:24.288Z,4.82
2017-07-04T04:46:50.845Z,5.05
2017-07-04T04:49:17.116Z,5.70
2017-07-04T04:51:43.355Z,4.85
2017-07-04T04:54:09.638Z,4.10
2017-07-04T04:56:35.898Z,4.32
2017-07-04T04:59:02.225Z,3.90
2017-07-04T05:01:28.458Z,4.68
2017-07-04T05:03:54.981Z,4.60
2017-07-04T05:06:21.241Z,4.20
2017-07-04T05:08:47.897Z,4.30
2017-07-04T05:11:14.188Z,5.00
2017-07-04T05:13:40.469Z,4.57
2017-07-04T05:16:06.748Z,4.60
2017-07-04T05:18:33.024Z,4.55
2017-07-04T05:20:59.307Z,4.20
2017-07-04T05:23:25.542Z,3.92
2017-07-04T05:25:51.840Z,4.43
2017-07-04T05:28:18.100Z,4.22
2017-07-04T05:30:44.753Z,4.35
2017-07-04T05:33:11.061Z,4.37
2017-07-04T05:35:37.324Z,4.15
2017-07-04T05:38:03.614Z,4.53
2017-07-04T05:40:29.908Z,4.90
2017-07-04T05:42:56.215Z,4.87
2017-07-04T05:45:22.495Z,4.30
2017-07-04T05:47:49.043Z,4.25
2017-07-04T05:50:15.295Z,4.70
2017-07-04T05:52:41.556Z,4.60
2017-07-04T05:55:07.865Z,5.10
2017-07-04T05:57:34.115Z,4.95
2017-07-04T06:00:00.366Z,4.60
2017-07-04T06:02:26.627Z,4.10
2017-07-04T06:04:52.925Z,5.00
2017-07-04T06:07:19.233Z,4.97
2017-07-04T06:09:45.878Z,4.40
2017-07-04T06:12:12.121Z,3.83
2017-07-04T06:14:38.361Z,3.63
2017-07-04T06:17:05.284Z,4.13
2017-07-04T06:19:31.539Z,4.23
2017-07-04T06:21:57.831Z,4.53
2017-07-04T06:24:24.079Z,3.77
2017-07-04T06:26:50.333Z,4.10
2017-07-04T06:29:16.609Z,4.10
2017-07-04T06:31:42.897Z,4.67
2017-07-04T06:34:09.819Z,3.90
2017-07-04T06:36:36.080Z,3.57
2017-07-04T06:39:02.462Z,4.20
2017-07-04T06:41:28.755Z,4.23
2017-07-04T06:43:55.042Z,3.40
2017-07-04T06:46:21.329Z,4.10
2017-07-04T06:48:47.606Z,4.00
2017-07-04T06:51:13.879Z,3.97
2017-07-04T06:53:40.440Z,4.70
2017-07-04T06:56:06.699Z,6.07
2017-07-04T06:58:32.978Z,5.80
2017-07-04T07:00:59.265Z,6.37
2017-07-04T07:03:25.525Z,6.90
2017-07-04T07:05:52.212Z,6.63
2017-07-04T07:08:18.476Z,6.30
2017-07-04T07:10:44.767Z,5.50
2017-07-04T07:13:11.074Z,4.93
2017-07-04T07:15:37.331Z,5.63
2017-07-04T07:18:03.615Z,4.73
2017-07-04T07:20:29.893Z,4.67
2017-07-04T07:22:56.601Z,4.67
2017-07-04T07:25:22.839Z,5.47
2017-07-04T07:27:49.111Z,5.00
2017-07-04T07:30:15.405Z,5.60
2017-07-04T07:32:41.755Z,5.73
2017-07-04T07:35:08.066Z,6.97
2017-07-04T07:37:34.354Z,15.63
2017-07-04T07:40:01.891Z,5.27
2017-07-04T07:42:28.206Z,5.33
2017-07-04T07:44:54.504Z,5.67
2017-07-04T07:47:20.782Z,4.80
2017-07-04T07:49:47.059Z,4.60
2017-07-04T07:52:13.344Z,4.53
2017-07-04T07:54:39.964Z,4.03
2017-07-04T07:57:06.503Z,4.37
2017-07-04T07:59:32.776Z,4.23
2017-07-04T08:01:59.064Z,4.70
2017-07-04T08:04:25.354Z,4.57
2017-07-04T08:06:51.663Z,4.50
2017-07-04T08:09:17.940Z,4.60
2017-07-04T08:11:44.239Z,4.13
2017-07-04T08:14:10.512Z,4.23
2017-07-04T08:16:37.358Z,5.10
2017-07-04T08:19:03.711Z,4.67
2017-07-04T08:21:30.018Z,4.60
2017-07-04T08:23:56.293Z,4.80
2017-07-04T08:26:22.620Z,4.80
2017-07-04T08:28:48.904Z,4.53
2017-07-04T08:31:15.268Z,5.40
2017-07-04T08:33:41.549Z,3.90
2017-07-04T08:36:07.872Z,3.70
2017-07-04T08:38:34.154Z,4.03
2017-07-04T08:41:00.424Z,4.27
2017-07-04T08:43:26.742Z,4.33
2017-07-04T08:45:53.048Z,3.93
2017-07-04T08:48:19.331Z,4.20
2017-07-04T08:50:45.592Z,5.00
2017-07-04T08:53:12.171Z,4.37
2017-07-04T08:55:38.413Z,4.00
2017-07-04T08:58:04.720Z,4.40
2017-07-04T09:00:31.024Z,4.10
2017-07-04T09:02:57.274Z,4.03
2017-07-04T09:05:23.508Z,4.50
2017-07-04T09:07:49.779Z,3.43
2017-07-04T09:10:16.042Z,3.17
2017-07-04T09:12:42.355Z,3.90
2017-07-04T09:15:09.009Z,3.80
2017-07-04T09:17:35.296Z,3.83
2017-07-04T09:20:01.571Z,4.40
2017-07-04T09:22:27.857Z,3.80
2017-07-04T09:24:54.137Z,3.83
2017-07-04T09:27:20.375Z,4.30
2017-07-04T09:29:46.665Z,4.37
2017-07-04T09:32:12.965Z,4.17
2017-07-04T09:34:39.253Z,3.87
2017-07-04T09:37:05.519Z,4.43
2017-07-04T09:39:31.813Z,4.37
2017-07-04T09:41:58.107Z,4.67
2017-07-04T09:44:24.821Z,4.10
2017-07-04T09:46:51.150Z,4.10
2017-07-04T09:49:17.493Z,4.13
2017-07-04T09:51:44.513Z,3.77
2017-07-04T09:54:10.789Z,3.70
2017-07-04T09:56:37.070Z,3.57
2017-07-04T09:59:03.376Z,3.60
2017-07-04T10:01:29.624Z,3.93
2017-07-04T10:03:55.936Z,4.43
2017-07-04T10:06:22.241Z,4.37
2017-07-04T10:08:48.895Z,3.93
2017-07-04T10:11:15.303Z,3.80
2017-07-04T10:13:41.976Z,4.00
2017-07-04T10:16:08.244Z,3.97
2017-07-04T10:18:34.523Z,3.93
2017-07-04T10:21:00.799Z,3.57
2017-07-04T10:23:27.106Z,3.57
2017-07-04T10:25:53.750Z,3.83
2017-07-04T10:28:20.005Z,3.63
2017-07-04T10:30:46.303Z,3.70
2017-07-04T10:33:12.598Z,3.67
2017-07-04T10:35:38.856Z,3.50
2017-07-04T10:38:05.772Z,3.70
2017-07-04T10:40:32.025Z,3.73
2017-07-04T10:42:58.626Z,4.60
2017-07-04T10:45:24.904Z,3.70
2017-07-04T10:47:51.183Z,4.10
2017-07-04T10:50:17.467Z,3.43
2017-07-04T10:52:43.759Z,4.23
2017-07-04T10:55:10.056Z,3.77
2017-07-04T10:57:36.337Z,4.00
2017-07-04T11:00:02.676Z,3.60
2017-07-04T11:02:29.003Z,3.20
2017-07-04T11:04:55.315Z,3.47
2017-07-04T11:07:21.617Z,3.23
2017-07-04T11:09:48.272Z,3.73
2017-07-04T11:12:14.618Z,3.00
2017-07-04T11:14:40.900Z,3.50
2017-07-04T11:17:07.179Z,3.80
2017-07-04T11:19:33.455Z,3.07
2017-07-04T11:21:59.717Z,3.00
2017-07-04T11:24:25.984Z,4.03
2017-07-04T11:26:52.286Z,3.70
2017-07-04T11:29:18.646Z,3.30
2017-07-04T11:31:44.913Z,3.13
2017-07-04T11:34:11.573Z,3.37
2017-07-04T11:36:37.862Z,3.80
2017-07-04T11:39:04.221Z,3.60
2017-07-04T11:41:30.878Z,2.93
2017-07-04T11:43:57.166Z,3.40
2017-07-04T11:46:23.454Z,3.70
2017-07-04T11:48:49.750Z,2.80
2017-07-04T11:51:16.059Z,3.47
2017-07-04T11:53:42.333Z,3.00
2017-07-04T11:56:08.634Z,3.47
2017-07-04T11:58:34.929Z,2.93
2017-07-04T12:01:01.235Z,3.10
2017-07-04T12:03:27.587Z,3.27
2017-07-04T12:05:54.115Z,3.53
2017-07-04T12:08:20.427Z,3.10
2017-07-04T12:10:46.706Z,3.40
2017-07-04T12:13:13.016Z,3.23
2017-07-04T12:15:39.293Z,3.23
2017-07-04T12:18:05.590Z,3.20
2017-07-04T12:20:31.870Z,3.30
2017-07-04T12:22:58.288Z,3.20
2017-07-04T12:25:24.552Z,2.80
2017-07-04T12:27:50.814Z,3.03
2017-07-04T12:30:17.107Z,3.43
2017-07-04T12:32:43.388Z,3.40
2017-07-04T12:35:09.688Z,3.70
2017-07-04T12:37:36.865Z,3.00
2017-07-04T12:40:03.149Z,2.77
2017-07-04T12:42:29.418Z,4.00
2017-07-04T12:44:56.119Z,3.60
2017-07-04T12:47:22.419Z,2.80
2017-07-04T12:49:49.168Z,3.43
2017-07-04T12:52:15.879Z,3.50
2017-07-04T12:54:42.239Z,3.13
2017-07-04T12:57:08.526Z,3.47
2017-07-04T12:59:34.783Z,3.07
2017-07-04T13:02:01.351Z,3.60
2017-07-04T13:04:27.610Z,3.03
2017-07-04T13:06:53.933Z,3.17
2017-07-04T13:09:20.666Z,3.53
2017-07-04T13:11:46.942Z,2.90
2017-07-04T13:14:13.199Z,2.67
2017-07-04T13:16:39.520Z,2.77
2017-07-04T13:19:05.796Z,3.10
2017-07-04T13:21:32.344Z,3.20
2017-07-04T13:23:58.971Z,2.93
2017-07-04T13:26:25.253Z,2.97
2017-07-04T13:28:51.528Z,2.63
2017-07-04T13:31:17.875Z,3.10
2017-07-04T13:33:44.541Z,3.00
2017-07-04T13:36:10.801Z,2.73
2017-07-04T13:38:37.088Z,2.70
2017-07-04T13:41:03.392Z,2.90
2017-07-04T13:43:29.648Z,2.30
2017-07-04T13:45:56.047Z,1.93
2017-07-04T13:48:22.390Z,2.73
2017-07-04T13:50:49.174Z,2.43
2017-07-04T13:53:15.486Z,2.30
2017-07-04T13:55:41.763Z,2.47
2017-07-04T13:58:08.061Z,2.30
2017-07-04T14:00:34.368Z,2.53
2017-07-04T14:03:00.666Z,2.00
2017-07-04T14:05:26.972Z,2.90
2017-07-04T14:07:54.122Z,2.43
2017-07-04T14:10:20.385Z,2.17
2017-07-04T14:12:46.650Z,2.20
2017-07-04T14:15:12.935Z,2.60
2017-07-04T14:17:39.237Z,2.57
2017-07-04T14:20:05.527Z,2.60
2017-07-04T14:22:31.772Z,2.63
2017-07-04T14:24:58.052Z,2.30
2017-07-04T14:27:24.326Z,2.20
2017-07-04T14:29:50.629Z,2.70
2017-07-04T14:32:16.932Z,2.50
2017-07-04T14:34:43.200Z,3.07
2017-07-04T14:37:09.484Z,2.60
2017-07-04T14:39:35.768Z,2.60
2017-07-04T14:42:02.438Z,2.40
2017-07-04T14:44:28.706Z,2.77
2017-07-04T14:46:55.009Z,3.07
2017-07-04T14:49:21.307Z,2.90
2017-07-04T14:51:47.569Z,3.13
2017-07-04T14:54:13.861Z,2.60
2017-07-04T14:56:40.130Z,2.57
2017-07-04T14:59:06.852Z,2.73
2017-07-04T15:01:33.122Z,2.80
2017-07-04T15:03:59.527Z,2.60
2017-07-04T15:06:25.810Z,2.83
2017-07-04T15:08:53.032Z,3.00
2017-07-04T15:11:19.328Z,3.30
2017-07-04T15:13:45.605Z,3.70
2017-07-04T15:16:12.693Z,2.53
2017-07-04T15:18:38.949Z,2.40
2017-07-04T15:21:05.227Z,2.70
2017-07-04T15:23:31.584Z,2.47
2017-07-04T15:25:57.999Z,2.60
2017-07-04T15:28:24.282Z,3.33
2017-07-04T15:30:50.597Z,2.93
2017-07-04T15:33:17.259Z,2.47
2017-07-04T15:35:43.935Z,2.37
2017-07-04T15:38:10.234Z,2.33
2017-07-04T15:40:36.566Z,2.43
2017-07-04T15:43:03.219Z,2.67
2017-07-04T15:45:29.546Z,2.30
2017-07-04T15:47:55.841Z,3.03
2017-07-04T15:50:22.405Z,2.37
2017-07-04T15:52:48.671Z,2.97
2017-07-04T15:55:14.948Z,2.60
2017-07-04T15:57:41.607Z,3.00
2017-07-04T16:00:07.897Z,2.70
2017-07-04T16:02:34.178Z,2.70
2017-07-04T16:05:00.452Z,3.10
2017-07-04T16:07:26.758Z,2.87
2017-07-04T16:09:53.043Z,2.53
2017-07-04T16:12:19.317Z,3.07
2017-07-04T16:14:45.903Z,2.90
2017-07-04T16:17:12.153Z,2.83
2017-07-04T16:19:38.440Z,2.70
2017-07-04T16:22:04.748Z,3.30
2017-07-04T16:24:31.032Z,3.07
2017-07-04T16:26:58.341Z,2.70
2017-07-04T16:29:24.623Z,2.53
2017-07-04T16:31:51.120Z,3.00
2017-07-04T16:34:17.902Z,2.83
2017-07-04T16:36:44.441Z,2.30
2017-07-04T16:39:10.978Z,2.60
2017-07-04T16:41:37.469Z,2.90
2017-07-04T16:44:03.910Z,3.00
2017-07-04T16:46:30.283Z,2.50
2017-07-04T16:48:56.593Z,2.87
2017-07-04T16:51:23.022Z,3.03
2017-07-04T16:53:49.782Z,2.83
2017-07-04T16:56:16.112Z,2.60
2017-07-04T16:58:42.364Z,2.60
2017-07-04T17:01:09.109Z,2.47
2017-07-04T17:03:35.348Z,2.60
2017-07-04T17:06:01.624Z,2.70
2017-07-04T17:08:27.891Z,2.53
2017-07-04T17:10:54.211Z,2.93
2017-07-04T17:13:20.505Z,2.90
2017-07-04T17:15:46.804Z,2.40
2017-07-04T17:18:13.425Z,2.40
2017-07-04T17:20:39.699Z,3.10
2017-07-04T17:23:06.001Z,2.83
2017-07-04T17:25:32.631Z,2.70
2017-07-04T17:27:58.902Z,2.77
2017-07-04T17:30:26.153Z,2.80
2017-07-04T17:32:52.439Z,2.80
2017-07-04T17:35:18.732Z,2.93
2017-07-04T17:37:45.028Z,3.03
2017-07-04T17:40:11.326Z,2.90
2017-07-04T17:42:37.624Z,3.00
2017-07-04T17:45:03.928Z,2.60
2017-07-04T17:47:30.210Z,3.33
2017-07-04T17:49:56.526Z,2.80
2017-07-04T17:52:22.775Z,3.03
2017-07-04T17:54:49.368Z,2.80
2017-07-04T17:57:15.673Z,2.50
2017-07-04T17:59:41.946Z,2.90
2017-07-04T18:02:08.673Z,3.30
2017-07-04T18:04:34.950Z,3.20
2017-07-04T18:07:01.237Z,3.30
2017-07-04T18:09:27.555Z,2.90
2017-07-04T18:11:53.883Z,2.83
2017-07-04T18:14:20.182Z,2.87
2017-07-04T18:16:46.447Z,2.50
2017-07-04T18:19:13.020Z,2.87
2017-07-04T18:21:39.281Z,2.70
2017-07-04T18:24:05.599Z,2.60
2017-07-04T18:26:31.956Z,2.90
2017-07-04T18:28:59.109Z,3.10
2017-07-04T18:31:25.949Z,3.40
2017-07-04T18:33:52.227Z,3.13
2017-07-04T18:36:18.812Z,2.80
2017-07-04T18:38:46.084Z,3.07
2017-07-04T18:41:12.413Z,3.30
2017-07-04T18:43:38.779Z,2.97
2017-07-04T18:46:05.182Z,2.67
2017-07-04T18:48:31.877Z,4.10
2017-07-04T18:50:59.698Z,3.60
2017-07-04T18:53:26.662Z,2.93
2017-07-04T18:55:53.039Z,2.97
2017-07-04T18:58:21.874Z,3.10
2017-07-04T19:00:49.350Z,3.07
2017-07-04T19:03:15.883Z,3.40
2017-07-04T19:05:43.496Z,3.30
2017-07-04T19:08:09.888Z,3.33
2017-07-04T19:10:36.704Z,3.30
2017-07-04T19:13:03.094Z,3.50
2017-07-04T19:15:29.567Z,3.73
2017-07-04T19:17:56.057Z,4.27
2017-07-04T19:20:22.405Z,4.00
2017-07-04T19:22:48.780Z,4.07
2017-07-04T19:25:15.563Z,4.27
2017-07-04T19:27:41.942Z,3.87
2017-07-04T19:30:08.317Z,4.50
2017-07-04T19:32:34.663Z,4.20
2017-07-04T19:35:01.900Z,3.70
2017-07-04T19:37:31.415Z,4.10
2017-07-04T19:39:58.920Z,4.07
2017-07-04T19:42:25.793Z,4.83
2017-07-04T19:44:52.490Z,4.20
2017-07-04T19:47:19.010Z,4.60
2017-07-04T19:49:45.794Z,4.17
2017-07-04T19:52:12.399Z,4.20
2017-07-04T19:54:39.237Z,4.67
2017-07-04T19:57:05.915Z,3.90
2017-07-04T19:59:33.046Z,4.17
2017-07-04T20:02:00.847Z,4.63
2017-07-04T20:04:29.793Z,4.07
2017-07-04T20:06:58.571Z,4.00
2017-07-04T20:09:25.964Z,4.40
2017-07-04T20:11:53.150Z,3.73
2017-07-04T20:14:20.447Z,4.40
2017-07-04T20:16:47.587Z,4.73
2017-07-04T20:19:15.743Z,4.40
2017-07-04T20:21:42.556Z,4.10
2017-07-04T20:24:09.248Z,4.30
2017-07-04T20:26:36.065Z,4.37
2017-07-04T20:29:02.742Z,4.07
2017-07-04T20:31:29.307Z,4.40
2017-07-04T20:33:57.087Z,4.53
2017-07-04T20:36:23.770Z,4.80
2017-07-04T20:38:51.645Z,4.37
2017-07-04T20:41:18.336Z,4.40
2017-07-04T20:43:44.999Z,4.63
2017-07-04T20:46:11.603Z,4.60
2017-07-04T20:48:38.209Z,4.47
2017-07-04T20:51:04.981Z,3.90
2017-07-04T20:53:32.335Z,4.30
2017-07-04T20:55:58.921Z,4.30
2017-07-04T20:58:25.236Z,5.60
2017-07-04T21:00:51.568Z,4.90
2017-07-04T21:03:17.912Z,5.93
2017-07-04T21:05:44.229Z,4.97
2017-07-04T21:08:10.516Z,4.83
2017-07-04T21:10:38.213Z,5.60
2017-07-04T21:13:05.485Z,5.83
2017-07-04T21:15:31.788Z,6.60
2017-07-04T21:17:58.766Z,7.77
2017-07-04T21:20:25.614Z,7.60
2017-07-04T21:22:51.902Z,6.80
2017-07-04T21:25:18.204Z,6.97
2017-07-04T21:27:44.895Z,6.47
2017-07-04T21:30:18.073Z,6.70
2017-07-04T21:32:44.359Z,7.60
2017-07-04T21:35:10.641Z,7.10
2017-07-04T21:37:36.988Z,5.43
2017-07-04T21:40:03.240Z,5.73
2017-07-04T21:42:29.533Z,6.27
2017-07-04T21:44:55.838Z,6.37
2017-07-04T21:47:22.958Z,5.53
2017-07-04T21:49:49.212Z,5.57
2017-07-04T21:52:15.512Z,6.60
2017-07-04T21:54:41.796Z,6.50
2017-07-04T21:57:08.109Z,6.00
2017-07-04T21:59:34.381Z,6.03
2017-07-04T22:02:00.712Z,6.00
2017-07-04T22:04:26.988Z,5.87
2017-07-04T22:06:53.304Z,5.50
2017-07-04T22:09:19.970Z,6.33
2017-07-04T22:11:46.259Z,5.30
2017-07-04T22:14:12.559Z,5.40
2017-07-04T22:16:38.828Z,5.27
2017-07-04T22:19:05.495Z,6.00
2017-07-04T22:21:31.786Z,4.93
2017-07-04T22:23:58.069Z,5.23
2017-07-04T22:26:24.506Z,5.43
2017-07-04T22:28:50.780Z,5.00
2017-07-04T22:31:17.119Z,5.37
2017-07-04T22:33:43.438Z,6.70
2017-07-04T22:36:10.121Z,5.67
2017-07-04T22:38:36.406Z,6.93
2017-07-04T22:41:02.764Z,5.90
2017-07-04T22:43:29.041Z,5.80
2017-07-04T22:45:55.303Z,6.70
2017-07-04T22:48:21.636Z,6.63
2017-07-04T22:50:48.376Z,7.40
2017-07-04T22:53:14.654Z,7.40
2017-07-04T22:55:40.919Z,5.87
2017-07-04T22:58:07.586Z,6.57
2017-07-04T23:00:33.895Z,6.90
2017-07-04T23:03:00.167Z,6.40
2017-07-04T23:05:26.444Z,6.50
2017-07-04T23:07:53.188Z,6.57
2017-07-04T23:10:23.778Z,7.23
2017-07-04T23:12:52.965Z,6.63
2017-07-04T23:15:20.100Z,7.20
2017-07-04T23:17:46.406Z,8.40
2017-07-04T23:20:13.615Z,6.90
2017-07-04T23:22:40.758Z,7.53
2017-07-04T23:25:09.243Z,8.60
2017-07-04T23:27:36.503Z,8.30
2017-07-04T23:30:05.288Z,7.17
2017-07-04T23:32:32.248Z,7.80
2017-07-04T23:35:02.466Z,7.23
2017-07-04T23:37:28.819Z,7.23
2017-07-04T23:39:56.697Z,7.40
2017-07-04T23:42:26.914Z,6.80
2017-07-04T23:44:53.234Z,6.90
2017-07-04T23:47:23.024Z,7.10
2017-07-04T23:49:49.291Z,6.80
2017-07-04T23:52:15.582Z,7.25
2017-07-04T23:54:41.864Z,6.80
2017-07-04T23:57:08.144Z,6.60
2017-07-04T23:59:34.434Z,5.93
